Time;durP1;ratioP1;P1;durP2;ratioP2;P2;SDS_P1;SDS_P2;PMS_P1;PMS_P2;Temp;Humidity;BMP_temperature;BMP_pressure;BME280_temperature;BME280_humidity;BME280_pressure;Samples;Min_cycle;Max_cycle;Signal;HPM_P1;HPM_P2
2021/07/12 00:01:27;;;;;;;5.20;4.80;;;16.20;99.90;;;;;;5082837;28;20429;-65
2021/07/12 00:03:56;;;;;;;5.30;4.90;;;16.20;99.90;;;;;;5083532;28;20329;-65
2021/07/12 00:06:25;;;;;;;4.77;4.43;;;16.20;99.90;;;;;;5082951;28;20407;-65
2021/07/12 00:08:53;;;;;;;4.80;4.40;;;16.20;99.90;;;;;;5081924;28;20196;-65
2021/07/12 00:11:21;;;;;;;6.10;4.70;;;16.20;99.90;;;;;;5075523;28;20196;-65
2021/07/12 00:13:52;;;;;;;4.77;4.27;;;16.20;99.90;;;;;;5077911;28;20200;-65
2021/07/12 00:16:22;;;;;;;6.07;5.10;;;16.20;99.90;;;;;;5078816;28;20202;-65
2021/07/12 00:18:51;;;;;;;5.07;4.57;;;16.20;99.90;;;;;;5083115;28;20211;-65
2021/07/12 00:21:20;;;;;;;6.50;5.90;;;16.20;99.90;;;;;;5082888;28;20177;-65
2021/07/12 00:23:49;;;;;;;5.70;5.30;;;16.10;99.90;;;;;;5081158;28;20181;-65
2021/07/12 00:26:17;;;;;;;5.90;5.40;;;16.10;99.90;;;;;;5080874;28;20380;-65
2021/07/12 00:28:46;;;;;;;6.67;5.67;;;16.10;99.90;;;;;;5079595;28;20185;-65
2021/07/12 00:31:15;;;;;;;7.80;6.13;;;16.10;99.90;;;;;;5079645;28;20254;-65
2021/07/12 00:33:44;;;;;;;5.73;5.27;;;16.10;99.90;;;;;;5078663;28;20215;-65
2021/07/12 00:36:13;;;;;;;6.87;5.93;;;16.10;99.90;;;;;;5074633;28;20197;-65
2021/07/12 00:38:42;;;;;;;6.47;5.87;;;16.10;99.90;;;;;;5079829;28;20179;-65
2021/07/12 00:41:10;;;;;;;6.37;5.60;;;16.10;99.90;;;;;;5082549;28;20188;-65
2021/07/12 00:43:39;;;;;;;7.47;6.43;;;16.10;99.90;;;;;;5082305;28;20188;-65
2021/07/12 00:46:08;;;;;;;7.30;5.93;;;16.10;99.90;;;;;;5081727;28;20468;-65
2021/07/12 00:48:37;;;;;;;7.20;6.27;;;16.00;99.90;;;;;;5080413;28;20180;-65
2021/07/12 00:51:09;;;;;;;6.93;6.23;;;16.10;99.90;;;;;;5080889;28;20188;-65
2021/07/12 00:53:37;;;;;;;7.30;6.03;;;16.00;99.90;;;;;;5062884;28;20185;-65
2021/07/12 00:56:08;;;;;;;6.70;6.10;;;16.00;99.90;;;;;;5076858;28;20176;-65
2021/07/12 00:58:37;;;;;;;6.83;6.20;;;16.00;99.90;;;;;;5080481;28;20401;-65
2021/07/12 01:01:06;;;;;;;6.00;5.50;;;16.00;99.90;;;;;;5078865;28;20196;-65
2021/07/12 01:03:36;;;;;;;5.53;5.13;;;16.00;99.90;;;;;;5080501;28;20215;-65
2021/07/12 01:06:05;;;;;;;9.90;5.47;;;15.90;99.90;;;;;;5078872;28;20391;-65
2021/07/12 01:08:35;;;;;;;7.07;5.53;;;15.90;99.90;;;;;;5080856;28;20191;-65
2021/07/12 01:11:10;;;;;;;5.80;5.20;;;15.90;99.90;;;;;;5080047;28;20188;-65
2021/07/12 01:13:47;;;;;;;5.40;5.00;;;15.90;99.90;;;;;;5077976;28;20801;-65
2021/07/12 01:16:28;;;;;;;5.23;4.83;;;15.90;99.90;;;;;;5078556;28;20225;-65
2021/07/12 01:19:07;;;;;;;5.70;4.97;;;15.90;99.90;;;;;;5080936;28;20417;-65
2021/07/12 01:22:09;;;;;;;7.87;5.57;;;15.90;99.90;;;;;;5078545;28;20225;-65
2021/07/12 01:25:22;;;;;;;7.30;5.73;;;15.80;99.90;;;;;;5079500;28;20279;-65
2021/07/12 01:28:21;;;;;;;6.50;5.90;;;15.80;99.90;;;;;;5078228;28;20478;-65
2021/07/12 01:31:41;;;;;;;6.07;5.57;;;15.80;99.90;;;;;;5071274;28;20200;-65
2021/07/12 01:34:15;;;;;;;6.70;6.20;;;15.80;99.90;;;;;;5074576;28;20253;-65
2021/07/12 01:36:53;;;;;;;6.40;5.90;;;15.90;99.90;;;;;;5074605;28;20340;-65
2021/07/12 01:39:27;;;;;;;6.70;5.63;;;15.90;99.90;;;;;;5075618;28;20199;-65
2021/07/12 01:42:02;;;;;;;6.93;6.33;;;15.90;99.90;;;;;;5080120;28;20183;-65
2021/07/12 01:44:40;;;;;;;6.20;5.70;;;15.90;99.90;;;;;;5079237;28;20196;-65
2021/07/12 01:47:10;;;;;;;8.50;6.43;;;16.00;99.90;;;;;;5073631;28;20503;-65
2021/07/12 01:49:49;;;;;;;7.53;6.60;;;16.00;99.90;;;;;;5076135;28;20487;-65
2021/07/12 01:52:26;;;;;;;9.03;6.20;;;16.00;99.90;;;;;;5076530;28;20184;-65
2021/07/12 01:55:01;;;;;;;6.87;6.27;;;16.00;99.90;;;;;;5076001;28;20195;-65
2021/07/12 01:57:33;;;;;;;7.23;6.63;;;16.00;99.90;;;;;;5078385;28;20183;-65
2021/07/12 02:00:07;;;;;;;7.33;6.63;;;16.00;99.90;;;;;;5078448;28;20222;-65
2021/07/12 02:02:38;;;;;;;7.17;6.37;;;16.00;99.90;;;;;;5079662;28;20253;-65
2021/07/12 02:05:12;;;;;;;7.27;6.57;;;16.00;99.90;;;;;;5078083;28;20192;-65
2021/07/12 02:07:43;;;;;;;7.00;6.40;;;16.00;99.90;;;;;;5076795;28;20391;-65
2021/07/12 02:10:13;;;;;;;7.20;6.50;;;16.00;99.90;;;;;;5076064;28;20437;-65
2021/07/12 02:12:44;;;;;;;7.57;6.87;;;16.10;99.90;;;;;;5080551;28;20206;-65
2021/07/12 02:15:27;;;;;;;7.33;6.63;;;16.10;99.90;;;;;;5081772;28;20241;-65
2021/07/12 02:17:57;;;;;;;7.27;6.63;;;16.10;99.90;;;;;;5083002;28;20199;-65
2021/07/12 02:20:28;;;;;;;7.87;7.00;;;16.10;99.90;;;;;;5081896;28;20220;-65
2021/07/12 02:22:57;;;;;;;9.03;7.00;;;16.10;99.90;;;;;;5081599;28;20227;-65
2021/07/12 02:25:28;;;;;;;6.97;6.37;;;16.10;99.90;;;;;;5080175;28;20203;-65
2021/07/12 02:27:57;;;;;;;7.07;6.27;;;16.10;99.90;;;;;;5081375;28;20370;-65
2021/07/12 02:30:27;;;;;;;7.67;6.53;;;16.20;99.90;;;;;;5076985;28;20210;-65
2021/07/12 02:32:56;;;;;;;8.17;7.37;;;16.20;99.90;;;;;;5081967;28;20233;-65
2021/07/12 02:35:26;;;;;;;7.30;6.60;;;16.20;99.90;;;;;;5082709;28;20413;-65
2021/07/12 02:37:56;;;;;;;7.43;6.73;;;16.20;99.90;;;;;;5083162;28;20197;-64
2021/07/12 02:40:25;;;;;;;7.23;6.53;;;16.20;99.90;;;;;;5078983;28;20465;-65
2021/07/12 02:42:57;;;;;;;6.50;5.87;;;16.20;99.90;;;;;;5079169;28;20213;-65
2021/07/12 02:45:27;;;;;;;7.57;6.87;;;16.20;99.90;;;;;;5076999;28;20254;-65
2021/07/12 02:47:56;;;;;;;7.33;6.63;;;16.20;99.90;;;;;;5081590;28;20242;-65
2021/07/12 02:50:28;;;;;;;7.80;7.10;;;16.20;99.90;;;;;;5084336;28;20341;-65
2021/07/12 02:53:04;;;;;;;7.70;6.87;;;16.20;99.90;;;;;;5078960;28;20197;-65
2021/07/12 02:55:33;;;;;;;9.13;7.23;;;16.20;99.90;;;;;;5084075;28;20332;-65
2021/07/12 02:58:01;;;;;;;7.33;6.63;;;16.20;99.90;;;;;;5084882;28;20187;-65
2021/07/12 03:00:29;;;;;;;7.77;6.70;;;16.20;99.90;;;;;;5084446;28;20325;-65
2021/07/12 03:02:58;;;;;;;7.70;7.00;;;16.20;99.90;;;;;;5084674;28;20200;-65
2021/07/12 03:05:26;;;;;;;8.00;7.30;;;16.20;99.90;;;;;;5083806;28;20509;-65
2021/07/12 03:08:06;;;;;;;7.37;6.67;;;16.20;99.90;;;;;;5083700;28;20220;-65
2021/07/12 03:10:40;;;;;;;7.63;6.70;;;16.20;99.90;;;;;;5079164;28;20332;-65
2021/07/12 03:13:11;;;;;;;8.77;7.07;;;16.20;99.90;;;;;;5083302;28;20180;-65
2021/07/12 03:15:41;;;;;;;7.57;6.87;;;16.20;99.90;;;;;;5084388;28;20268;-65
2021/07/12 03:18:17;;;;;;;7.43;6.73;;;16.20;99.90;;;;;;5080710;28;20235;-65
2021/07/12 03:20:47;;;;;;;8.13;7.03;;;16.20;99.90;;;;;;5079669;28;20487;-65
2021/07/12 03:23:19;;;;;;;7.67;6.97;;;16.20;99.90;;;;;;5084494;28;20185;-65
2021/07/12 03:25:52;;;;;;;7.90;7.07;;;16.20;99.90;;;;;;5083931;28;20191;-65
2021/07/12 03:28:21;;;;;;;6.87;6.27;;;16.20;99.90;;;;;;5079205;28;20254;-65
2021/07/12 03:30:51;;;;;;;7.13;6.43;;;16.10;99.90;;;;;;5079882;28;20445;-65
2021/07/12 03:33:23;;;;;;;7.17;6.47;;;16.10;99.90;;;;;;5067520;28;20271;-65
2021/07/12 03:35:53;;;;;;;9.27;7.57;;;16.10;99.90;;;;;;5076819;28;20172;-65
2021/07/12 03:38:24;;;;;;;9.47;7.60;;;16.00;99.90;;;;;;5081647;28;20427;-65
2021/07/12 03:40:54;;;;;;;11.37;7.90;;;16.00;99.90;;;;;;5074002;28;20405;-65
2021/07/12 03:43:23;;;;;;;8.73;6.87;;;16.00;99.90;;;;;;5079781;28;20201;-65
2021/07/12 03:45:57;;;;;;;7.63;6.87;;;15.90;99.90;;;;;;5077984;28;20235;-65
2021/07/12 03:48:36;;;;;;;7.43;6.83;;;15.90;99.90;;;;;;5083036;28;20230;-65
2021/07/12 03:51:06;;;;;;;7.90;7.10;;;15.80;99.90;;;;;;5079170;28;20184;-65
2021/07/12 03:53:36;;;;;;;7.27;6.57;;;15.80;99.90;;;;;;5072541;28;20349;-65
2021/07/12 03:56:05;;;;;;;8.10;6.90;;;15.70;99.90;;;;;;5080883;28;20184;-65
2021/07/12 03:58:34;;;;;;;7.40;6.70;;;15.70;99.90;;;;;;5081576;28;20188;-65
2021/07/12 04:01:03;;;;;;;8.37;7.57;;;15.70;99.90;;;;;;5078126;28;20298;-65
2021/07/12 04:03:32;;;;;;;7.87;7.17;;;15.70;99.90;;;;;;5076837;28;20208;-65
2021/07/12 04:06:00;;;;;;;8.43;7.63;;;15.70;99.90;;;;;;5079115;28;20191;-65
2021/07/12 04:08:30;;;;;;;7.90;7.20;;;15.70;99.90;;;;;;5080412;28;20200;-65
2021/07/12 04:11:00;;;;;;;8.27;7.47;;;15.70;99.90;;;;;;5076359;28;20384;-65
2021/07/12 04:13:29;;;;;;;7.90;7.10;;;15.70;99.90;;;;;;5082058;28;20230;-65
2021/07/12 04:15:58;;;;;;;10.00;7.83;;;15.80;99.90;;;;;;5081363;28;20434;-65
2021/07/12 04:18:27;;;;;;;9.70;8.17;;;15.80;99.90;;;;;;5074686;28;20452;-65
2021/07/12 04:20:55;;;;;;;11.60;8.17;;;15.90;99.90;;;;;;5071614;28;20230;-65
2021/07/12 04:23:24;;;;;;;8.63;7.83;;;15.90;99.90;;;;;;5082458;28;20267;-65
2021/07/12 04:25:52;;;;;;;9.70;7.63;;;16.00;99.90;;;;;;5074000;28;20173;-65
2021/07/12 04:28:21;;;;;;;7.70;7.07;;;16.00;99.90;;;;;;5081337;28;20232;-65
2021/07/12 04:30:50;;;;;;;6.80;6.30;;;16.10;99.90;;;;;;5071262;28;20180;-65
2021/07/12 04:33:18;;;;;;;8.27;7.47;;;16.10;99.90;;;;;;5070985;28;20220;-65
2021/07/12 04:35:46;;;;;;;10.03;7.53;;;16.20;99.90;;;;;;5082471;28;20350;-65
2021/07/12 04:38:14;;;;;;;9.57;8.27;;;16.20;99.90;;;;;;5080450;28;20180;-65
2021/07/12 04:40:43;;;;;;;8.50;7.60;;;16.30;99.90;;;;;;5081831;28;20471;-65
2021/07/12 04:43:11;;;;;;;8.03;6.87;;;16.30;99.90;;;;;;5072605;28;20188;-65
2021/07/12 04:45:41;;;;;;;7.63;6.90;;;16.40;99.90;;;;;;5080957;28;20178;-65
2021/07/12 04:48:09;;;;;;;7.53;6.90;;;16.40;99.90;;;;;;5077531;28;20206;-65
2021/07/12 04:50:38;;;;;;;9.23;8.33;;;16.40;99.90;;;;;;5082722;28;20191;-65
2021/07/12 04:53:06;;;;;;;8.07;7.30;;;16.50;99.90;;;;;;5080694;28;20168;-65
2021/07/12 04:55:34;;;;;;;8.70;7.17;;;16.60;99.90;;;;;;5077057;28;20176;-66
2021/07/12 04:58:03;;;;;;;7.87;6.40;;;16.60;99.90;;;;;;5078193;28;20194;-65
2021/07/12 05:00:33;;;;;;;7.00;6.43;;;16.70;99.90;;;;;;5082257;28;20193;-65
2021/07/12 05:03:04;;;;;;;8.23;6.93;;;16.90;99.90;;;;;;5080110;28;20184;-65
2021/07/12 05:05:33;;;;;;;6.43;5.93;;;17.00;99.90;;;;;;5080113;28;20186;-65
2021/07/12 05:08:01;;;;;;;7.43;6.47;;;17.10;99.90;;;;;;5082043;28;20423;-66
2021/07/12 05:10:30;;;;;;;10.23;6.77;;;17.10;99.90;;;;;;5079621;28;20433;-65
2021/07/12 05:12:58;;;;;;;6.57;5.97;;;17.20;99.90;;;;;;5079286;28;20467;-65
2021/07/12 05:15:27;;;;;;;10.30;7.57;;;17.30;99.90;;;;;;5077764;28;20197;-65
2021/07/12 05:17:55;;;;;;;10.77;7.33;;;17.40;99.90;;;;;;5078398;28;20335;-65
2021/07/12 05:20:25;;;;;;;8.97;7.23;;;17.50;99.90;;;;;;5081597;28;20177;-65
2021/07/12 05:22:53;;;;;;;7.83;7.13;;;17.50;99.90;;;;;;5081471;28;20348;-65
2021/07/12 05:25:21;;;;;;;9.07;7.20;;;17.60;99.90;;;;;;5081270;28;20263;-65
2021/07/12 05:27:49;;;;;;;7.47;6.83;;;17.60;99.90;;;;;;5079167;28;20424;-65
2021/07/12 05:30:19;;;;;;;8.60;6.50;;;17.60;99.90;;;;;;5073305;28;20372;-65
2021/07/12 05:32:47;;;;;;;7.67;6.27;;;17.60;99.90;;;;;;5072751;28;20224;-65
2021/07/12 05:35:15;;;;;;;6.70;6.10;;;17.70;99.90;;;;;;5077743;28;20194;-65
2021/07/12 05:37:45;;;;;;;6.07;5.60;;;17.80;99.90;;;;;;5081447;28;20172;-65
2021/07/12 05:40:14;;;;;;;6.23;5.63;;;17.80;99.90;;;;;;5080628;28;20437;-65
2021/07/12 05:42:43;;;;;;;5.73;5.33;;;17.90;99.90;;;;;;5079738;28;20444;-65
2021/07/12 05:45:12;;;;;;;5.87;5.37;;;18.00;99.90;;;;;;5081034;28;20195;-65
2021/07/12 05:47:40;;;;;;;5.90;5.40;;;18.10;99.90;;;;;;5080626;28;20184;-65
2021/07/12 05:50:10;;;;;;;5.83;5.43;;;18.20;99.90;;;;;;5076264;28;20216;-65
2021/07/12 05:52:39;;;;;;;5.33;4.93;;;18.30;99.90;;;;;;5074540;28;20226;-65
2021/07/12 05:55:10;;;;;;;5.80;5.30;;;18.40;99.90;;;;;;5078272;28;20184;-65
2021/07/12 05:57:38;;;;;;;5.10;4.80;;;18.70;99.90;;;;;;5075512;28;20525;-65
2021/07/12 06:00:10;;;;;;;6.13;4.60;;;18.90;99.90;;;;;;5077313;28;20187;-65
2021/07/12 06:02:38;;;;;;;5.17;4.67;;;19.00;99.90;;;;;;5078553;28;20211;-65
2021/07/12 06:05:07;;;;;;;4.87;4.47;;;19.00;99.90;;;;;;5077270;28;20333;-66
2021/07/12 06:07:36;;;;;;;5.57;4.33;;;19.00;99.90;;;;;;5065845;28;20428;-65
2021/07/12 06:10:06;;;;;;;5.10;4.10;;;19.00;99.90;;;;;;5077630;28;20211;-65
2021/07/12 06:12:36;;;;;;;4.40;4.10;;;19.00;99.90;;;;;;5077344;28;20187;-65
2021/07/12 06:15:06;;;;;;;4.30;3.83;;;19.00;99.90;;;;;;5079449;28;20330;-65
2021/07/12 06:17:34;;;;;;;3.93;3.73;;;19.00;99.90;;;;;;5076170;28;20188;-65
2021/07/12 06:20:04;;;;;;;3.63;3.43;;;19.00;99.90;;;;;;5072654;28;20207;-65
2021/07/12 06:22:33;;;;;;;3.60;3.30;;;19.10;99.90;;;;;;5076559;28;20195;-65
2021/07/12 06:25:02;;;;;;;4.37;3.97;;;19.20;99.90;;;;;;5086730;28;20202;-65
2021/07/12 06:27:30;;;;;;;3.77;3.60;;;19.30;99.90;;;;;;5075341;28;20435;-66
2021/07/12 06:30:00;;;;;;;3.40;3.20;;;19.30;99.90;;;;;;5074383;28;20472;-65
2021/07/12 06:32:28;;;;;;;3.40;3.20;;;19.40;99.90;;;;;;5074475;28;20285;-66
2021/07/12 06:34:57;;;;;;;4.10;3.67;;;19.40;99.90;;;;;;5077729;28;20180;-65
2021/07/12 06:37:25;;;;;;;3.30;3.00;;;19.50;99.90;;;;;;5062171;28;20176;-65
2021/07/12 06:39:53;;;;;;;3.50;3.30;;;19.40;99.90;;;;;;5078282;28;20510;-65
2021/07/12 06:42:22;;;;;;;3.53;3.23;;;19.50;99.90;;;;;;5071674;28;20195;-65
2021/07/12 06:44:50;;;;;;;4.70;3.30;;;19.50;99.90;;;;;;5076079;28;20818;-66
2021/07/12 06:47:20;;;;;;;5.30;2.90;;;19.60;99.90;;;;;;5078339;28;20503;-65
2021/07/12 06:49:48;;;;;;;3.47;3.17;;;19.50;99.90;;;;;;5078433;28;20289;-65
2021/07/12 06:52:16;;;;;;;3.10;2.80;;;19.60;99.90;;;;;;5076388;28;20359;-65
2021/07/12 06:54:45;;;;;;;3.13;2.93;;;19.60;99.90;;;;;;5076088;28;20601;-65
2021/07/12 06:57:14;;;;;;;3.30;3.07;;;19.80;99.90;;;;;;5079269;28;20180;-65
2021/07/12 06:59:42;;;;;;;3.10;3.00;;;19.80;99.90;;;;;;5078074;28;20180;-65
2021/07/12 07:02:11;;;;;;;6.07;2.90;;;19.90;99.90;;;;;;5079401;28;20453;-65
2021/07/12 07:04:41;;;;;;;3.30;3.10;;;20.00;99.90;;;;;;5078895;28;20341;-65
2021/07/12 07:07:10;;;;;;;3.37;3.07;;;20.10;99.90;;;;;;5072835;28;20240;-65
2021/07/12 07:09:38;;;;;;;4.03;3.50;;;20.30;99.90;;;;;;5082678;28;20227;-65
2021/07/12 07:12:07;;;;;;;3.70;3.50;;;20.40;99.90;;;;;;5083736;28;20184;-65
2021/07/12 07:14:36;;;;;;;3.87;3.30;;;20.50;99.90;;;;;;5081587;28;20472;-65
2021/07/12 07:17:04;;;;;;;4.60;3.43;;;20.50;99.90;;;;;;5083621;28;20275;-66
2021/07/12 07:19:33;;;;;;;3.07;2.77;;;20.50;99.90;;;;;;5082752;28;20345;-65
2021/07/12 07:22:03;;;;;;;3.20;2.90;;;20.50;99.90;;;;;;5083046;28;20187;-65
2021/07/12 07:24:31;;;;;;;3.00;2.80;;;20.50;99.90;;;;;;5083434;28;20200;-65
2021/07/12 07:27:00;;;;;;;2.87;2.67;;;20.60;99.90;;;;;;5074447;28;20214;-65
2021/07/12 07:29:28;;;;;;;3.97;2.80;;;20.70;99.90;;;;;;5074577;28;20257;-66
2021/07/12 07:31:56;;;;;;;4.40;2.80;;;20.90;99.90;;;;;;5080423;28;20210;-65
2021/07/12 07:34:39;;;;;;;2.70;2.60;;;21.00;99.90;;;;;;5083100;28;20176;-65
2021/07/12 07:37:09;;;;;;;2.83;2.67;;;21.20;99.90;;;;;;5078838;28;20194;-65
2021/07/12 07:39:39;;;;;;;2.80;2.60;;;21.40;99.90;;;;;;5083570;28;20184;-65
2021/07/12 07:42:22;;;;;;;2.70;2.60;;;21.40;99.90;;;;;;5081912;28;20199;-65
2021/07/12 07:44:51;;;;;;;2.90;2.70;;;21.40;99.90;;;;;;5080671;28;20172;-65
2021/07/12 07:47:21;;;;;;;3.53;2.50;;;21.70;99.90;;;;;;5078828;28;20203;-66
2021/07/12 07:49:50;;;;;;;4.37;2.80;;;22.00;99.90;;;;;;5081020;28;20255;-65
2021/07/12 07:52:21;;;;;;;2.50;2.40;;;22.30;99.90;;;;;;5082414;28;20268;-66
2021/07/12 07:54:50;;;;;;;4.03;2.27;;;22.70;99.90;;;;;;5079689;28;20181;-66
2021/07/12 07:57:19;;;;;;;2.67;2.30;;;23.00;99.90;;;;;;5081744;28;20217;-66
2021/07/12 07:59:48;;;;;;;2.33;2.13;;;23.30;99.90;;;;;;5082999;28;20311;-66
2021/07/12 08:02:17;;;;;;;2.50;2.10;;;23.50;99.90;;;;;;5080437;28;20460;-66
2021/07/12 08:04:50;;;;;;;2.30;2.10;;;23.80;99.90;;;;;;5080715;28;20183;-66
2021/07/12 08:07:21;;;;;;;2.60;2.33;;;23.90;99.90;;;;;;5081089;28;20316;-66
2021/07/12 08:09:49;;;;;;;2.37;2.27;;;23.80;99.90;;;;;;5080828;28;20208;-66
2021/07/12 08:12:19;;;;;;;2.50;2.40;;;23.70;99.90;;;;;;5080167;28;20259;-65
2021/07/12 08:14:47;;;;;;;2.30;2.20;;;23.70;99.90;;;;;;5080831;28;20467;-66
2021/07/12 08:17:15;;;;;;;2.97;2.10;;;23.80;99.90;;;;;;5064157;28;20200;-66
2021/07/12 08:19:44;;;;;;;2.23;2.13;;;23.70;99.90;;;;;;5072181;28;20188;-66
2021/07/12 08:22:12;;;;;;;2.40;1.87;;;23.60;99.90;;;;;;5078689;28;20194;-66
2021/07/12 08:24:42;;;;;;;3.33;2.57;;;23.50;99.90;;;;;;5080587;28;20226;-65
2021/07/12 08:27:10;;;;;;;2.33;2.17;;;23.40;99.90;;;;;;5080641;28;20211;-66
2021/07/12 08:29:39;;;;;;;7.10;2.30;;;23.60;99.90;;;;;;5077978;28;20181;-65
2021/07/12 08:32:07;;;;;;;2.20;2.10;;;23.70;99.90;;;;;;5074909;28;20182;-66
2021/07/12 08:34:41;;;;;;;2.63;2.43;;;23.90;99.90;;;;;;5075095;28;20337;-66
2021/07/12 08:37:12;;;;;;;2.07;1.97;;;24.30;99.90;;;;;;5078064;28;20187;-66
2021/07/12 08:39:42;;;;;;;2.40;2.20;;;24.60;99.90;;;;;;5079883;28;20186;-66
2021/07/12 08:42:12;;;;;;;4.00;2.40;;;24.70;99.90;;;;;;5075696;28;20445;-66
2021/07/12 08:44:41;;;;;;;2.50;2.27;;;24.80;99.90;;;;;;5078172;28;20437;-66
2021/07/12 08:47:09;;;;;;;2.60;2.40;;;25.10;99.90;;;;;;5074859;28;20193;-66
2021/07/12 08:49:38;;;;;;;2.13;1.93;;;25.50;99.90;;;;;;5077599;28;20413;-66
2021/07/12 08:52:07;;;;;;;2.33;2.23;;;25.60;99.90;;;;;;5071227;28;20475;-66
2021/07/12 08:54:38;;;;;;;2.30;2.20;;;25.50;99.90;;;;;;5080271;28;20316;-66
2021/07/12 08:57:08;;;;;;;2.20;2.10;;;25.40;99.90;;;;;;5074109;28;20586;-66
2021/07/12 08:59:39;;;;;;;2.00;1.90;;;25.40;99.90;;;;;;5075157;28;20220;-66
2021/07/12 09:02:10;;;;;;;2.13;2.10;;;25.40;99.90;;;;;;5078816;28;20184;-66
2021/07/12 09:04:41;;;;;;;2.33;2.13;;;25.30;99.90;;;;;;5080143;28;20184;-66
2021/07/12 09:07:11;;;;;;;3.13;2.47;;;25.10;99.90;;;;;;5077721;28;20188;-66
2021/07/12 09:09:40;;;;;;;2.80;2.20;;;24.70;99.90;;;;;;5078434;28;20186;-66
2021/07/12 09:12:15;;;;;;;1.97;1.87;;;24.40;99.90;;;;;;5078550;28;20220;-65
2021/07/12 09:15:02;;;;;;;3.67;2.10;;;24.20;99.90;;;;;;5076053;28;20347;-66
2021/07/12 09:17:32;;;;;;;2.40;2.20;;;24.10;99.90;;;;;;5078281;28;20193;-66
2021/07/12 09:20:01;;;;;;;3.23;2.10;;;24.10;99.90;;;;;;5078919;28;20534;-66
2021/07/12 09:22:34;;;;;;;2.10;2.00;;;24.10;99.90;;;;;;5079775;28;20208;-66
2021/07/12 09:25:07;;;;;;;2.37;1.90;;;24.10;99.90;;;;;;5079500;28;20202;-66
2021/07/12 09:27:39;;;;;;;2.40;2.10;;;24.00;99.90;;;;;;5078976;28;20232;-66
2021/07/12 09:30:09;;;;;;;3.03;2.37;;;24.00;99.90;;;;;;5074038;28;20182;-66
2021/07/12 09:32:40;;;;;;;3.73;1.97;;;24.00;99.90;;;;;;5078179;28;20225;-66
2021/07/12 09:35:11;;;;;;;2.20;2.00;;;23.90;99.90;;;;;;5073660;28;20206;-66
2021/07/12 09:37:42;;;;;;;3.67;2.57;;;23.90;99.90;;;;;;5074847;28;20201;-66
2021/07/12 09:40:12;;;;;;;3.37;2.90;;;23.90;99.90;;;;;;5078967;28;20190;-66
2021/07/12 09:42:44;;;;;;;3.23;2.93;;;23.90;99.90;;;;;;5077723;28;20358;-66
2021/07/12 09:45:14;;;;;;;3.17;2.53;;;24.00;99.90;;;;;;5079326;28;20192;-66
2021/07/12 09:47:48;;;;;;;2.20;2.13;;;24.00;99.90;;;;;;5072873;28;20177;-66
2021/07/12 09:50:18;;;;;;;4.83;2.67;;;23.90;99.90;;;;;;5077786;28;20189;-66
2021/07/12 09:52:49;;;;;;;2.50;2.40;;;23.90;99.90;;;;;;5079075;28;20197;-65
2021/07/12 09:55:30;;;;;;;2.93;2.10;;;23.90;99.90;;;;;;5079877;28;20351;-66
2021/07/12 09:58:10;;;;;;;3.83;2.27;;;23.80;99.90;;;;;;5073850;28;20292;-66
2021/07/12 10:00:40;;;;;;;3.33;2.20;;;23.90;99.90;;;;;;5076227;28;20456;-66
2021/07/12 10:03:09;;;;;;;2.23;2.13;;;23.80;99.90;;;;;;5078556;28;20240;-66
2021/07/12 10:05:38;;;;;;;4.97;2.17;;;23.70;99.90;;;;;;5080012;28;20207;-66
2021/07/12 10:08:08;;;;;;;3.30;1.80;;;23.70;99.90;;;;;;5074297;28;20254;-66
2021/07/12 10:10:36;;;;;;;2.10;2.00;;;23.70;99.90;;;;;;5068970;28;20187;-65
2021/07/12 10:13:06;;;;;;;3.27;2.00;;;23.70;99.90;;;;;;5078127;28;20199;-66
2021/07/12 10:15:36;;;;;;;2.37;2.10;;;23.60;99.90;;;;;;5075926;28;20184;-66
2021/07/12 10:18:06;;;;;;;2.67;2.00;;;23.40;99.90;;;;;;5076262;28;20220;-66
2021/07/12 10:20:35;;;;;;;3.80;1.90;;;23.40;99.90;;;;;;5060895;28;20201;-66
2021/07/12 10:23:06;;;;;;;2.53;2.20;;;23.40;99.90;;;;;;5073843;28;20454;-66
2021/07/12 10:25:36;;;;;;;3.57;2.27;;;23.40;99.90;;;;;;5078319;28;20180;-66
2021/07/12 10:28:06;;;;;;;3.90;2.33;;;23.30;99.90;;;;;;5077023;28;20433;-66
2021/07/12 10:30:39;;;;;;;3.10;2.20;;;23.20;99.90;;;;;;5078566;28;20234;-66
2021/07/12 10:33:09;;;;;;;2.40;2.30;;;23.20;99.90;;;;;;5079551;28;20465;-66
2021/07/12 10:35:42;;;;;;;4.33;2.60;;;23.30;99.90;;;;;;5077843;28;20192;-66
2021/07/12 10:38:13;;;;;;;2.40;2.20;;;23.30;99.90;;;;;;5078607;28;20181;-66
2021/07/12 10:40:52;;;;;;;3.53;2.27;;;23.20;99.90;;;;;;5080056;28;20192;-66
2021/07/12 10:43:46;;;;;;;2.60;2.40;;;23.30;99.90;;;;;;5082495;28;20235;-66
2021/07/12 10:46:40;;;;;;;3.03;2.10;;;23.30;99.90;;;;;;5081095;28;20221;-66
2021/07/12 10:49:36;;;;;;;7.03;2.50;;;23.20;99.90;;;;;;5078593;28;20251;-65
2021/07/12 10:52:05;;;;;;;2.20;2.10;;;23.10;99.90;;;;;;5070580;28;20251;-66
2021/07/12 10:55:01;;;;;;;4.00;2.70;;;23.10;99.90;;;;;;5081041;28;20176;-66
2021/07/12 10:57:30;;;;;;;2.80;2.40;;;23.10;99.90;;;;;;5079588;28;20255;-66
2021/07/12 11:00:12;;;;;;;2.50;2.40;;;23.10;99.90;;;;;;5081752;28;20187;-66
2021/07/12 11:02:42;;;;;;;2.50;2.40;;;23.30;99.90;;;;;;5076200;28;20252;-66
2021/07/12 11:05:16;;;;;;;2.60;2.03;;;23.30;99.90;;;;;;5077887;28;20283;-66
2021/07/12 11:07:46;;;;;;;2.30;2.20;;;23.50;99.90;;;;;;5079271;28;20259;-65
2021/07/12 11:10:25;;;;;;;2.50;2.40;;;23.50;99.90;;;;;;5078177;28;20422;-66
2021/07/12 11:12:56;;;;;;;2.33;2.23;;;23.70;99.90;;;;;;5075511;28;20279;-66
2021/07/12 11:15:36;;;;;;;5.03;2.50;;;23.90;99.90;;;;;;5076773;28;20224;-66
2021/07/12 11:18:29;;;;;;;2.70;2.30;;;24.20;99.90;;;;;;5079951;28;20185;-66
2021/07/12 11:21:02;;;;;;;2.70;2.60;;;24.30;99.90;;;;;;5080580;28;20248;-66
2021/07/12 11:23:45;;;;;;;2.30;2.20;;;24.30;99.90;;;;;;5076299;28;20195;-66
2021/07/12 11:26:42;;;;;;;2.60;2.50;;;24.20;99.90;;;;;;5076196;28;20189;-66
2021/07/12 11:29:17;;;;;;;5.47;2.70;;;24.30;99.90;;;;;;5061817;28;20443;-66
2021/07/12 11:31:48;;;;;;;3.50;2.70;;;24.40;99.90;;;;;;5076872;28;20278;-66
2021/07/12 11:34:21;;;;;;;3.53;2.20;;;24.40;99.90;;;;;;5073407;28;20259;-66
2021/07/12 11:36:52;;;;;;;2.40;2.30;;;24.40;99.90;;;;;;5075271;28;20181;-66
2021/07/12 11:39:39;;;;;;;2.50;2.40;;;24.40;99.90;;;;;;5079075;28;20434;-66
2021/07/12 11:42:25;;;;;;;2.60;2.47;;;24.40;99.90;;;;;;5073645;28;20347;-66
2021/07/12 11:45:00;;;;;;;2.43;2.33;;;24.40;99.90;;;;;;5075011;28;20183;-65
2021/07/12 11:47:32;;;;;;;3.33;2.33;;;24.50;99.90;;;;;;5073527;28;20197;-66
2021/07/12 11:50:06;;;;;;;2.43;2.20;;;24.50;99.90;;;;;;5077051;28;20186;-66
2021/07/12 11:52:36;;;;;;;2.67;2.47;;;24.50;99.90;;;;;;5077154;28;20458;-66
2021/07/12 11:55:10;;;;;;;3.13;2.80;;;24.60;99.90;;;;;;5077409;28;20188;-66
2021/07/12 11:57:45;;;;;;;3.70;2.83;;;24.60;99.90;;;;;;5076585;28;20179;-66
2021/07/12 12:00:16;;;;;;;2.97;2.40;;;24.60;99.90;;;;;;5073543;28;20182;-66
2021/07/12 12:02:46;;;;;;;2.80;2.60;;;24.70;99.90;;;;;;5077267;28;20438;-66
2021/07/12 12:05:16;;;;;;;3.63;2.23;;;24.60;99.90;;;;;;5075452;28;20206;-66
2021/07/12 12:07:47;;;;;;;2.77;2.40;;;24.40;99.90;;;;;;5076928;28;20194;-66
2021/07/12 12:10:18;;;;;;;2.53;2.43;;;24.30;99.90;;;;;;5073502;28;20423;-66
2021/07/12 12:12:49;;;;;;;2.50;2.40;;;24.20;99.90;;;;;;5076303;28;20275;-66
2021/07/12 12:15:25;;;;;;;4.13;2.70;;;24.00;99.90;;;;;;5076290;28;20216;-66
2021/07/12 12:17:56;;;;;;;5.27;2.77;;;23.80;99.90;;;;;;5074612;28;20248;-66
2021/07/12 12:20:29;;;;;;;2.27;2.20;;;23.70;99.90;;;;;;5072495;28;20202;-66
2021/07/12 12:23:12;;;;;;;2.37;2.27;;;23.60;99.90;;;;;;5076937;28;20213;-66
2021/07/12 12:25:46;;;;;;;8.43;2.90;;;23.40;99.90;;;;;;5090813;28;20216;-66
2021/07/12 12:28:26;;;;;;;3.17;2.90;;;23.40;99.90;;;;;;5076805;28;20392;-66
2021/07/12 12:30:57;;;;;;;3.17;2.97;;;23.30;99.90;;;;;;5072750;28;20222;-66
2021/07/12 12:33:27;;;;;;;4.10;2.60;;;23.30;99.90;;;;;;5075517;28;20389;-66
2021/07/12 12:35:59;;;;;;;2.70;2.53;;;23.20;99.90;;;;;;5073284;28;20195;-66
2021/07/12 12:38:28;;;;;;;2.90;2.60;;;23.20;99.90;;;;;;5076075;28;20226;-66
2021/07/12 12:40:59;;;;;;;2.77;2.60;;;23.20;99.90;;;;;;5077479;28;20194;-66
2021/07/12 12:43:28;;;;;;;3.90;2.80;;;23.30;99.90;;;;;;5073061;28;20181;-66
2021/07/12 12:46:01;;;;;;;2.60;2.40;;;23.30;99.90;;;;;;5076084;28;20184;-66
2021/07/12 12:48:43;;;;;;;3.53;3.10;;;23.30;99.90;;;;;;5075566;28;21725;-66
2021/07/12 12:51:26;;;;;;;3.10;2.87;;;23.30;99.90;;;;;;5078338;28;20181;-66
2021/07/12 12:54:00;;;;;;;3.10;2.87;;;23.40;99.90;;;;;;5079070;28;20249;-66
2021/07/12 12:56:34;;;;;;;2.60;2.50;;;23.50;99.90;;;;;;5079022;28;20181;-66
2021/07/12 12:59:04;;;;;;;2.70;2.60;;;23.60;99.90;;;;;;5077236;28;20265;-66
2021/07/12 13:01:38;;;;;;;2.90;2.80;;;23.70;99.90;;;;;;5076760;28;20208;-66
2021/07/12 13:04:09;;;;;;;2.70;2.60;;;23.80;99.90;;;;;;5077158;28;20409;-66
2021/07/12 13:06:45;;;;;;;2.47;2.30;;;23.80;99.90;;;;;;5076365;28;20190;-66
2021/07/12 13:09:14;;;;;;;2.67;2.57;;;23.80;99.90;;;;;;5070870;28;20370;-66